createdAt,value
2023-01-17T00:01:47.813Z,7.38
2023-01-17T00:04:33.437Z,4.13
2023-01-17T00:07:19.177Z,9.43
2023-01-17T00:09:57.247Z,6.25
2023-01-17T00:12:26.996Z,5.35
2023-01-17T00:14:56.849Z,7.40
2023-01-17T00:17:26.370Z,4.13
2023-01-17T00:20:11.971Z,5.80
2023-01-17T00:22:57.753Z,4.78
2023-01-17T00:25:56.461Z,4.32
2023-01-17T00:28:26.383Z,3.25
2023-01-17T00:30:53.924Z,9.07
2023-01-17T00:33:22.591Z,5.18
2023-01-17T00:35:50.250Z,3.40
2023-01-17T00:38:20.204Z,4.85
2023-01-17T00:40:48.476Z,4.63
2023-01-17T00:43:37.332Z,4.70
2023-01-17T00:46:24.241Z,7.45
2023-01-17T00:49:10.528Z,5.13
2023-01-17T00:51:57.132Z,7.47
2023-01-17T00:54:42.880Z,5.63
2023-01-17T00:57:28.847Z,7.00
2023-01-17T01:00:14.838Z,11.55
2023-01-17T01:06:31.296Z,4.07
2023-01-17T01:09:17.218Z,4.95
2023-01-17T01:12:02.869Z,3.20
2023-01-17T01:14:48.736Z,7.40
2023-01-17T01:17:34.393Z,6.78
2023-01-17T01:20:19.922Z,3.17
2023-01-17T01:23:05.645Z,2.85
2023-01-17T01:25:51.063Z,5.72
2023-01-17T01:28:37.040Z,3.67
2023-01-17T01:31:23.643Z,6.47
2023-01-17T01:33:52.252Z,3.50
2023-01-17T01:36:19.774Z,13.02
2023-01-17T01:38:47.059Z,2.85
2023-01-17T01:41:14.333Z,5.72
2023-01-17T01:43:52.739Z,1.90
2023-01-17T01:46:39.931Z,4.30
2023-01-17T01:49:24.986Z,3.45
2023-01-17T01:51:58.842Z,7.35
2023-01-17T01:54:31.453Z,4.13
2023-01-17T01:57:03.318Z,7.07
2023-01-17T01:59:32.771Z,3.33
2023-01-17T02:02:00.090Z,2.65
2023-01-17T02:04:28.287Z,3.25
2023-01-17T02:07:19.815Z,5.80
2023-01-17T02:09:47.014Z,4.40
2023-01-17T02:12:14.435Z,5.13
2023-01-17T02:14:42.321Z,3.95
2023-01-17T02:17:28.006Z,4.45
2023-01-17T02:20:13.559Z,3.80
2023-01-17T02:22:52.192Z,3.78
2023-01-17T02:25:45.519Z,7.50
2023-01-17T02:28:38.911Z,5.85
2023-01-17T02:31:23.863Z,4.50
2023-01-17T02:34:02.973Z,6.50
2023-01-17T02:36:35.760Z,4.25
2023-01-17T02:39:24.243Z,4.28
2023-01-17T02:41:57.042Z,4.05
2023-01-17T02:44:24.298Z,3.45
2023-01-17T02:46:57.068Z,6.07
2023-01-17T02:49:30.467Z,4.47
2023-01-17T02:52:06.227Z,3.83
2023-01-17T02:54:55.757Z,5.25
2023-01-17T02:57:41.350Z,2.60
2023-01-17T03:00:29.934Z,4.28
2023-01-17T03:03:10.502Z,4.85
2023-01-17T03:05:49.440Z,3.47
2023-01-17T03:08:17.990Z,3.42
2023-01-17T03:10:46.149Z,4.95
2023-01-17T03:13:13.446Z,3.40
2023-01-17T03:15:41.115Z,3.65
2023-01-17T03:18:13.636Z,5.22
2023-01-17T03:20:41.676Z,3.03
2023-01-17T03:23:09.356Z,4.72
2023-01-17T03:25:36.548Z,3.13
2023-01-17T03:28:04.065Z,2.85
2023-01-17T03:30:31.377Z,3.33
2023-01-17T03:32:58.574Z,3.78
2023-01-17T03:35:25.884Z,5.28
2023-01-17T03:37:53.055Z,4.43
2023-01-17T03:40:20.248Z,3.75
2023-01-17T03:42:47.532Z,5.18
2023-01-17T03:45:14.854Z,2.70
2023-01-17T03:47:42.087Z,4.00
2023-01-17T03:50:10.044Z,5.10
2023-01-17T03:52:37.228Z,4.25
2023-01-17T03:55:05.535Z,2.55
2023-01-17T03:57:32.710Z,3.50
2023-01-17T03:59:59.892Z,3.03
2023-01-17T04:02:27.121Z,2.80
2023-01-17T04:04:54.370Z,2.78
2023-01-17T04:07:22.931Z,4.32
2023-01-17T04:09:50.198Z,2.70
2023-01-17T04:12:17.419Z,3.28
2023-01-17T04:14:44.668Z,3.40
2023-01-17T04:17:17.950Z,2.00
2023-01-17T04:19:45.414Z,2.03
2023-01-17T04:22:12.564Z,5.40
2023-01-17T04:24:39.734Z,1.25
2023-01-17T04:27:06.976Z,3.33
2023-01-17T04:29:34.208Z,4.60
2023-01-17T04:32:01.375Z,3.45
2023-01-17T04:34:28.570Z,5.32
2023-01-17T04:36:55.741Z,5.18
2023-01-17T04:39:23.037Z,1.40
2023-01-17T04:41:50.295Z,5.97
2023-01-17T04:44:17.590Z,2.55
2023-01-17T04:46:44.898Z,0.98
2023-01-17T04:49:12.116Z,3.58
2023-01-17T04:51:39.316Z,1.80
2023-01-17T04:54:06.551Z,2.78
2023-01-17T04:56:33.717Z,3.15
2023-01-17T04:59:00.913Z,2.90
2023-01-17T05:01:28.228Z,2.67
2023-01-17T05:03:55.526Z,4.30
2023-01-17T05:06:22.865Z,3.38
2023-01-17T05:08:50.098Z,5.28
2023-01-17T05:11:18.088Z,2.20
2023-01-17T05:13:47.481Z,2.47
2023-01-17T05:16:17.730Z,3.05
2023-01-17T05:18:45.023Z,3.42
2023-01-17T05:21:12.261Z,2.63
2023-01-17T05:23:40.607Z,2.22
2023-01-17T05:26:07.788Z,2.53
2023-01-17T05:28:35.184Z,1.40
2023-01-17T05:31:02.591Z,2.65
2023-01-17T05:33:29.838Z,2.28
2023-01-17T05:35:57.480Z,2.92
2023-01-17T05:38:25.179Z,6.00
2023-01-17T05:40:52.410Z,3.22
2023-01-17T05:43:20.318Z,1.67
2023-01-17T05:45:52.096Z,2.88
2023-01-17T05:48:19.391Z,3.28
2023-01-17T05:50:46.752Z,3.20
2023-01-17T05:53:15.673Z,2.42
2023-01-17T05:55:43.329Z,2.17
2023-01-17T05:58:16.897Z,2.22
2023-01-17T06:00:44.797Z,3.83
2023-01-17T06:03:12.812Z,1.23
2023-01-17T06:05:40.407Z,1.23
2023-01-17T06:08:08.324Z,1.48
2023-01-17T06:10:35.556Z,6.78
2023-01-17T06:13:12.608Z,2.05
2023-01-17T06:15:40.257Z,2.17
2023-01-17T06:18:16.928Z,2.25
2023-01-17T06:20:44.915Z,2.72
2023-01-17T06:23:14.471Z,1.55
2023-01-17T06:25:44.137Z,3.00
2023-01-17T06:28:13.103Z,2.90
2023-01-17T06:30:40.840Z,1.20
2023-01-17T06:33:08.155Z,1.25
2023-01-17T06:35:35.371Z,2.67
2023-01-17T06:38:02.663Z,4.50
2023-01-17T06:40:30.587Z,4.00
2023-01-17T06:43:02.048Z,1.88
2023-01-17T06:45:30.746Z,1.80
2023-01-17T06:47:59.364Z,2.28
2023-01-17T06:50:27.361Z,1.77
2023-01-17T06:52:57.163Z,4.90
2023-01-17T06:55:24.928Z,2.40
2023-01-17T06:57:52.171Z,4.43
2023-01-17T07:00:19.627Z,2.15
2023-01-17T07:02:49.951Z,2.08
2023-01-17T07:05:17.528Z,2.40
2023-01-17T07:07:45.684Z,1.92
2023-01-17T07:10:14.322Z,1.60
2023-01-17T07:12:41.578Z,2.70
2023-01-17T07:15:09.511Z,1.98
2023-01-17T07:17:36.836Z,2.55
2023-01-17T07:20:04.554Z,3.45
2023-01-17T07:22:31.778Z,3.40
2023-01-17T07:24:58.992Z,5.43
2023-01-17T07:27:27.898Z,1.92
2023-01-17T07:29:55.413Z,1.20
2023-01-17T07:32:23.237Z,4.70
2023-01-17T07:34:51.068Z,1.05
2023-01-17T07:37:20.024Z,1.75
2023-01-17T07:39:47.199Z,3.17
2023-01-17T07:42:14.435Z,2.20
2023-01-17T07:44:44.121Z,4.38
2023-01-17T07:47:11.786Z,2.30
2023-01-17T07:49:39.249Z,1.75
2023-01-17T07:52:09.921Z,4.05
2023-01-17T07:54:37.223Z,3.13
2023-01-17T07:57:04.503Z,2.25
2023-01-17T07:59:33.841Z,2.13
2023-01-17T08:02:01.243Z,3.22
2023-01-17T08:04:34.740Z,2.33
2023-01-17T08:07:02.521Z,3.60
2023-01-17T08:09:29.763Z,3.80
2023-01-17T08:11:56.968Z,1.80
2023-01-17T08:14:24.225Z,2.97
2023-01-17T08:16:51.646Z,3.30
2023-01-17T08:19:19.103Z,3.03
2023-01-17T08:21:46.287Z,2.15
2023-01-17T08:24:14.092Z,1.63
2023-01-17T08:26:41.311Z,4.32
2023-01-17T08:29:09.476Z,4.40
2023-01-17T08:31:36.851Z,3.90
2023-01-17T08:34:04.261Z,2.35
2023-01-17T08:36:31.623Z,2.65
2023-01-17T08:38:59.059Z,5.38
2023-01-17T08:41:29.004Z,2.20
2023-01-17T08:43:56.199Z,13.55
2023-01-17T08:46:23.471Z,2.38
2023-01-17T08:48:55.977Z,2.42
2023-01-17T08:51:26.418Z,4.20
2023-01-17T08:53:55.750Z,4.90
2023-01-17T08:56:27.393Z,4.10
2023-01-17T08:58:54.604Z,2.47
2023-01-17T09:01:21.965Z,3.53
2023-01-17T09:03:51.497Z,4.85
2023-01-17T09:06:18.871Z,2.80
2023-01-17T09:08:47.175Z,7.03
2023-01-17T09:11:16.972Z,4.25
2023-01-17T09:13:44.893Z,2.75
2023-01-17T09:16:12.135Z,9.05
2023-01-17T09:18:39.393Z,6.75
2023-01-17T09:21:17.620Z,4.15
2023-01-17T09:23:45.192Z,3.83
2023-01-17T09:26:22.158Z,2.95
2023-01-17T09:28:49.746Z,5.55
2023-01-17T09:31:17.999Z,4.65
2023-01-17T09:33:45.219Z,5.90
2023-01-17T09:36:13.051Z,5.00
2023-01-17T09:38:40.503Z,6.35
2023-01-17T09:41:32.477Z,5.75
2023-01-17T09:44:09.600Z,8.40
2023-01-17T09:46:44.508Z,7.35
2023-01-17T09:49:14.610Z,8.63
2023-01-17T09:51:42.756Z,6.85
2023-01-17T09:54:21.916Z,7.80
2023-01-17T09:57:01.521Z,4.43
2023-01-17T10:00:02.054Z,4.93
2023-01-17T10:05:19.256Z,3.45
2023-01-17T10:08:16.715Z,3.63
2023-01-17T10:10:51.116Z,7.43
2023-01-17T10:13:24.417Z,4.47
2023-01-17T10:16:08.767Z,8.87
2023-01-17T10:18:48.297Z,7.78
2023-01-17T10:21:34.112Z,3.35
2023-01-17T10:24:31.616Z,4.43
2023-01-17T10:27:02.024Z,5.22
2023-01-17T10:29:34.686Z,4.43
2023-01-17T10:32:03.241Z,6.15
2023-01-17T10:34:45.092Z,5.53
2023-01-17T10:37:26.199Z,7.22
2023-01-17T10:39:57.219Z,8.70
2023-01-17T10:42:38.207Z,11.00
2023-01-17T10:45:18.370Z,6.32
2023-01-17T10:47:51.985Z,8.25
2023-01-17T10:50:21.265Z,11.60
2023-01-17T10:53:11.077Z,6.82
2023-01-17T10:55:53.478Z,8.05
2023-01-17T10:58:21.029Z,8.23
2023-01-17T11:01:19.892Z,8.32
2023-01-17T11:03:56.220Z,6.80
2023-01-17T11:06:25.485Z,10.23
2023-01-17T11:08:58.610Z,6.65
2023-01-17T11:11:36.369Z,10.70
2023-01-17T11:14:24.182Z,10.77
2023-01-17T11:17:03.513Z,8.35
2023-01-17T11:19:35.519Z,12.27
2023-01-17T11:22:05.567Z,11.43
2023-01-17T11:24:32.697Z,12.43
2023-01-17T11:27:00.184Z,15.93
2023-01-17T11:29:40.510Z,11.05
2023-01-17T11:32:30.995Z,14.45
2023-01-17T11:35:10.145Z,19.98
2023-01-17T11:37:37.829Z,17.75
2023-01-17T11:40:22.238Z,13.60
2023-01-17T11:43:19.652Z,14.77
2023-01-17T11:46:17.145Z,14.02
2023-01-17T11:48:50.503Z,11.25
2023-01-17T11:51:19.600Z,11.30
2023-01-17T11:53:48.393Z,10.60
2023-01-17T11:56:36.731Z,13.90
2023-01-17T11:59:23.791Z,17.23
2023-01-17T12:01:50.924Z,16.73
2023-01-17T12:05:09.252Z,12.07
2023-01-17T12:07:58.204Z,11.73
2023-01-17T12:10:41.553Z,11.55
2023-01-17T12:13:54.302Z,15.00
2023-01-17T12:16:40.125Z,7.95
2023-01-17T12:19:22.448Z,10.40
2023-01-17T12:21:58.920Z,10.85
2023-01-17T12:24:35.305Z,13.23
2023-01-17T12:27:14.422Z,9.35
2023-01-17T12:30:04.159Z,13.15
2023-01-17T12:32:56.039Z,8.70
2023-01-17T12:35:39.514Z,12.00
2023-01-17T12:38:11.427Z,8.32
2023-01-17T12:41:19.381Z,12.10
2023-01-17T12:43:47.099Z,14.93
2023-01-17T12:46:28.989Z,12.05
2023-01-17T12:49:04.560Z,12.13
2023-01-17T12:51:37.637Z,17.63
2023-01-17T12:54:29.675Z,7.85
2023-01-17T12:57:06.384Z,10.00
2023-01-17T12:59:59.830Z,9.82
2023-01-17T13:02:44.867Z,12.00
2023-01-17T13:08:03.854Z,9.18
2023-01-17T13:10:35.960Z,9.05
2023-01-17T13:13:13.446Z,12.30
2023-01-17T13:15:42.229Z,16.23
2023-01-17T13:18:22.868Z,12.68
2023-01-17T13:21:04.944Z,16.10
2023-01-17T13:24:03.348Z,22.48
2023-01-17T13:26:36.633Z,12.90
2023-01-17T13:29:30.062Z,18.45
2023-01-17T13:31:57.276Z,17.90
2023-01-17T13:34:30.372Z,18.27
2023-01-17T13:37:06.453Z,18.13
2023-01-17T13:40:21.654Z,12.60
2023-01-17T13:43:04.140Z,12.65
2023-01-17T13:45:36.664Z,16.58
2023-01-17T13:48:12.843Z,11.52
2023-01-17T13:50:56.127Z,19.52
2023-01-17T13:53:29.075Z,17.42
2023-01-17T13:56:24.122Z,17.90
2023-01-17T14:01:34.721Z,22.40
2023-01-17T14:04:05.243Z,17.27
2023-01-17T14:06:44.328Z,16.00
2023-01-17T14:09:22.262Z,24.10
2023-01-17T14:12:26.753Z,14.75
2023-01-17T14:14:56.766Z,14.27
2023-01-17T14:17:25.717Z,11.65
2023-01-17T14:20:01.863Z,15.93
2023-01-17T14:22:34.836Z,26.15
2023-01-17T14:25:19.947Z,21.35
2023-01-17T14:27:58.402Z,15.02
2023-01-17T14:30:31.737Z,16.88
2023-01-17T14:32:58.964Z,14.63
2023-01-17T14:35:32.795Z,17.27
2023-01-17T14:38:05.595Z,21.67
2023-01-17T14:40:37.924Z,18.23
2023-01-17T14:43:09.727Z,15.23
2023-01-17T14:45:37.937Z,13.75
2023-01-17T14:48:07.430Z,18.30
2023-01-17T14:50:39.368Z,14.55
2023-01-17T14:53:13.792Z,15.45
2023-01-17T14:56:03.489Z,15.77
2023-01-17T14:58:32.014Z,15.82
2023-01-17T15:01:03.878Z,15.98
2023-01-17T15:03:35.738Z,10.52
2023-01-17T15:06:17.659Z,17.30
2023-01-17T15:08:45.220Z,16.42
2023-01-17T15:11:23.016Z,11.45
2023-01-17T15:13:53.379Z,23.98
2023-01-17T15:16:29.187Z,12.95
2023-01-17T15:18:57.648Z,13.38
2023-01-17T15:21:33.231Z,18.45
2023-01-17T15:24:03.906Z,19.70
2023-01-17T15:26:35.446Z,20.73
2023-01-17T15:29:08.300Z,18.42
2023-01-17T15:31:41.729Z,20.45
2023-01-17T15:34:16.859Z,13.93
2023-01-17T15:36:49.390Z,22.98
2023-01-17T15:39:30.467Z,14.15
2023-01-17T15:41:59.794Z,19.23
2023-01-17T15:44:49.701Z,19.17
2023-01-17T15:47:31.714Z,21.88
2023-01-17T15:50:00.651Z,17.75
2023-01-17T15:52:28.197Z,17.25
2023-01-17T15:55:14.626Z,21.02
2023-01-17T15:57:47.990Z,15.07
2023-01-17T16:00:21.019Z,22.27
2023-01-17T16:02:55.162Z,14.02
2023-01-17T16:05:23.109Z,28.75
2023-01-17T16:07:54.601Z,18.70
2023-01-17T16:10:31.702Z,12.10
2023-01-17T16:12:59.839Z,11.38
2023-01-17T16:15:28.287Z,23.38
2023-01-17T16:18:02.608Z,32.08
2023-01-17T16:23:02.707Z,21.33
2023-01-17T16:25:32.592Z,13.60
2023-01-17T16:28:00.744Z,14.68
2023-01-17T16:30:28.904Z,16.60
2023-01-17T16:32:59.057Z,12.25
2023-01-17T16:35:30.135Z,12.27
2023-01-17T16:37:59.885Z,9.30
2023-01-17T16:40:32.833Z,12.35
2023-01-17T16:43:00.937Z,14.55
2023-01-17T16:45:28.238Z,9.00
2023-01-17T16:47:55.728Z,13.48
2023-01-17T16:50:25.154Z,14.27
2023-01-17T16:52:54.329Z,11.50
2023-01-17T16:55:23.753Z,18.88
2023-01-17T16:57:52.771Z,13.30
2023-01-17T17:00:21.205Z,25.27
2023-01-17T17:02:52.773Z,12.02
2023-01-17T17:05:20.278Z,21.20
2023-01-17T17:07:50.817Z,16.08
2023-01-17T17:10:21.393Z,20.35
2023-01-17T17:12:48.573Z,16.45
2023-01-17T17:15:15.778Z,19.35
2023-01-17T17:17:43.897Z,21.30
2023-01-17T17:20:13.754Z,15.68
2023-01-17T17:22:44.141Z,22.88
2023-01-17T17:25:12.197Z,20.92
2023-01-17T17:27:39.697Z,15.00
2023-01-17T17:30:08.567Z,29.20
2023-01-17T17:32:37.061Z,24.80
2023-01-17T17:35:05.515Z,17.52
2023-01-17T17:37:32.994Z,23.60
2023-01-17T17:40:00.319Z,20.33
2023-01-17T17:42:27.947Z,13.25
2023-01-17T17:44:55.536Z,16.98
2023-01-17T17:47:24.231Z,14.68
2023-01-17T17:49:51.816Z,10.48
2023-01-17T17:52:19.712Z,14.18
2023-01-17T17:54:51.087Z,11.90
2023-01-17T17:57:22.377Z,17.45
2023-01-17T17:59:49.722Z,14.15
2023-01-17T18:02:17.128Z,12.13
2023-01-17T18:04:44.875Z,14.65
2023-01-17T18:07:12.153Z,17.38
2023-01-17T18:09:39.741Z,12.68
2023-01-17T18:12:07.139Z,13.80
2023-01-17T18:14:34.912Z,13.50
2023-01-17T18:17:03.624Z,20.55
2023-01-17T18:19:31.307Z,11.77
2023-01-17T18:21:58.667Z,15.15
2023-01-17T18:24:27.653Z,19.05
2023-01-17T18:26:57.666Z,18.67
2023-01-17T18:29:26.315Z,18.08
2023-01-17T18:31:54.410Z,28.88
2023-01-17T18:34:24.326Z,27.05
2023-01-17T18:36:52.781Z,20.65
2023-01-17T18:39:24.657Z,18.48
2023-01-17T18:41:52.368Z,21.35
2023-01-17T18:44:22.181Z,19.60
2023-01-17T18:46:51.031Z,23.42
2023-01-17T18:49:19.591Z,22.45
2023-01-17T18:51:50.815Z,29.40
2023-01-17T18:54:19.948Z,27.33
2023-01-17T18:56:47.449Z,22.85
2023-01-17T18:59:18.459Z,19.52
2023-01-17T19:01:46.123Z,39.88
2023-01-17T19:04:15.936Z,59.97
2023-01-17T19:06:46.667Z,51.33
2023-01-17T19:09:15.571Z,39.17
2023-01-17T19:11:44.901Z,36.60
2023-01-17T19:14:12.887Z,29.40
2023-01-17T19:16:42.044Z,28.17
2023-01-17T19:19:12.305Z,39.35
2023-01-17T19:21:39.715Z,29.80
2023-01-17T19:24:07.407Z,30.77
2023-01-17T19:26:34.675Z,23.52
2023-01-17T19:29:05.178Z,20.55
2023-01-17T19:31:36.628Z,34.00
2023-01-17T19:34:03.923Z,30.80
2023-01-17T19:36:36.774Z,26.55
2023-01-17T19:39:06.694Z,30.92
2023-01-17T19:41:36.568Z,30.95
2023-01-17T19:44:07.328Z,40.13
2023-01-17T19:46:35.800Z,28.48
2023-01-17T19:49:04.558Z,31.08
2023-01-17T19:51:32.012Z,34.25
2023-01-17T19:54:01.548Z,27.17
2023-01-17T19:56:29.767Z,42.78
2023-01-17T19:59:02.105Z,43.20
2023-01-17T20:01:34.532Z,31.13
2023-01-17T20:04:03.829Z,34.38
2023-01-17T20:06:39.114Z,28.50
2023-01-17T20:09:07.330Z,24.05
2023-01-17T20:11:34.700Z,38.28
2023-01-17T20:14:01.989Z,32.10
2023-01-17T20:16:32.046Z,21.05
2023-01-17T20:19:00.262Z,33.50
2023-01-17T20:21:28.878Z,26.45
2023-01-17T20:23:57.860Z,28.55
2023-01-17T20:26:34.639Z,30.40
2023-01-17T20:29:07.451Z,26.88
2023-01-17T20:31:38.470Z,30.70
2023-01-17T20:34:07.301Z,24.70
2023-01-17T20:36:34.699Z,31.70
2023-01-17T20:39:03.812Z,28.67
2023-01-17T20:41:36.647Z,28.15
2023-01-17T20:44:06.117Z,25.90
2023-01-17T20:46:40.438Z,23.45
2023-01-17T20:49:15.455Z,21.38
2023-01-17T20:51:44.963Z,28.67
2023-01-17T20:54:15.172Z,32.33
2023-01-17T20:56:43.239Z,25.23
2023-01-17T20:59:16.632Z,22.65
2023-01-17T21:01:45.112Z,22.42
2023-01-17T21:04:13.437Z,21.40
2023-01-17T21:06:42.217Z,33.47
2023-01-17T21:09:13.258Z,26.63
2023-01-17T21:11:40.651Z,24.55
2023-01-17T21:14:08.498Z,30.95
2023-01-17T21:16:36.313Z,24.95
2023-01-17T21:19:04.224Z,29.98
2023-01-17T21:21:31.870Z,28.88
2023-01-17T21:24:00.011Z,27.20
2023-01-17T21:26:28.458Z,28.35
2023-01-17T21:28:56.630Z,38.03
2023-01-17T21:31:27.440Z,34.58
2023-01-17T21:33:57.422Z,31.75
2023-01-17T21:36:28.142Z,23.67
2023-01-17T21:38:58.197Z,26.92
2023-01-17T21:41:30.424Z,20.90
2023-01-17T21:44:03.700Z,21.23
2023-01-17T21:46:31.244Z,23.50
2023-01-17T21:48:58.599Z,30.25
2023-01-17T21:51:46.802Z,27.95
2023-01-17T21:54:14.084Z,23.08
2023-01-17T21:57:00.248Z,28.70
2023-01-17T21:59:27.589Z,25.00
2023-01-17T22:01:54.883Z,21.90
2023-01-17T22:04:22.480Z,21.48
2023-01-17T22:06:49.742Z,18.45
2023-01-17T22:09:17.137Z,14.45
2023-01-17T22:11:44.352Z,23.60
2023-01-17T22:14:11.720Z,17.50
2023-01-17T22:16:38.918Z,15.88
2023-01-17T22:19:06.162Z,21.60
2023-01-17T22:21:33.999Z,15.48
2023-01-17T22:24:01.546Z,24.70
2023-01-17T22:26:31.011Z,26.40
2023-01-17T22:29:02.828Z,28.17
2023-01-17T22:31:30.967Z,17.77
2023-01-17T22:34:03.372Z,18.50
2023-01-17T22:36:33.399Z,20.67
2023-01-17T22:39:01.000Z,23.08
2023-01-17T22:41:30.012Z,25.48
2023-01-17T22:43:59.132Z,25.50
2023-01-17T22:46:27.919Z,28.52
2023-01-17T22:48:57.261Z,23.65
2023-01-17T22:51:27.613Z,23.90
2023-01-17T22:53:57.896Z,16.55
2023-01-17T22:56:34.219Z,16.17
2023-01-17T22:59:01.952Z,17.55
2023-01-17T23:01:30.982Z,17.75
2023-01-17T23:04:00.946Z,22.60
2023-01-17T23:06:30.963Z,20.35
2023-01-17T23:09:00.811Z,16.55
2023-01-17T23:11:39.131Z,25.65
2023-01-17T23:14:07.451Z,14.82
2023-01-17T23:16:54.081Z,14.40
2023-01-17T23:19:24.814Z,16.83
2023-01-17T23:22:13.492Z,19.90
2023-01-17T23:25:01.788Z,18.63
2023-01-17T23:27:59.182Z,19.40
2023-01-17T23:30:29.485Z,14.52
2023-01-17T23:33:01.546Z,15.95
2023-01-17T23:35:31.360Z,19.05
2023-01-17T23:38:17.623Z,19.30
2023-01-17T23:41:05.629Z,12.90
2023-01-17T23:43:33.633Z,15.05
2023-01-17T23:46:01.564Z,20.15
2023-01-17T23:48:29.018Z,13.93
2023-01-17T23:51:08.064Z,14.60
2023-01-17T23:53:39.648Z,11.15
2023-01-17T23:56:27.109Z,13.88
2023-01-17T23:58:54.350Z,11.32
